Time;durP1;ratioP1;P1;durP2;ratioP2;P2;SDS_P1;SDS_P2;PMS_P1;PMS_P2;Temp;Humidity;BMP_temperature;BMP_pressure;BME280_temperature;BME280_humidity;BME280_pressure;Samples;Min_cycle;Max_cycle;Signal;HPM_P1;HPM_P2
2022/07/19 00:00:13;;;;;;;7.00;3.75;;;21.70;67.00;;;;;;5005360;28;20027;-73
2022/07/19 00:02:39;;;;;;;5.20;3.55;;;21.60;67.20;;;;;;4998119;28;20486;-73
2022/07/19 00:05:07;;;;;;;4.90;3.03;;;21.50;67.30;;;;;;5000681;28;20018;-72
2022/07/19 00:07:33;;;;;;;4.85;3.00;;;21.50;67.50;;;;;;5004957;28;20033;-73
2022/07/19 00:09:58;;;;;;;4.63;2.92;;;21.50;67.50;;;;;;5006597;28;20141;-72
2022/07/19 00:12:24;;;;;;;7.45;2.83;;;21.50;67.80;;;;;;5006802;28;20120;-73
2022/07/19 00:14:50;;;;;;;5.45;2.85;;;21.50;67.70;;;;;;5004314;28;20070;-73
2022/07/19 00:17:15;;;;;;;4.28;2.60;;;21.40;67.40;;;;;;5003836;28;20033;-73
2022/07/19 00:19:41;;;;;;;3.63;2.70;;;21.40;67.10;;;;;;5004978;28;20026;-73
2022/07/19 00:22:07;;;;;;;3.70;2.38;;;21.40;66.90;;;;;;5004755;28;20022;-73
2022/07/19 00:24:32;;;;;;;4.80;3.15;;;21.40;67.10;;;;;;5003331;28;20455;-73
2022/07/19 00:26:58;;;;;;;5.30;3.10;;;21.40;67.50;;;;;;4999401;28;20101;-73
2022/07/19 00:29:24;;;;;;;6.15;3.72;;;21.40;68.50;;;;;;5008888;28;20029;-73
2022/07/19 00:31:50;;;;;;;7.60;4.10;;;21.30;69.40;;;;;;4998498;28;20390;-73
2022/07/19 00:34:15;;;;;;;4.63;3.28;;;21.30;70.10;;;;;;5009105;28;20030;-73
2022/07/19 00:36:41;;;;;;;7.60;3.08;;;21.30;71.40;;;;;;5008854;28;20021;-72
2022/07/19 00:39:07;;;;;;;5.85;3.20;;;21.20;70.80;;;;;;5009617;28;20044;-73
2022/07/19 00:41:42;;;;;;;5.90;3.03;;;21.30;71.00;;;;;;5007763;28;21001;-73
2022/07/19 00:44:09;;;;;;;5.78;2.80;;;21.20;71.10;;;;;;5011434;28;20053;-73
2022/07/19 00:46:36;;;;;;;7.72;3.78;;;21.20;71.10;;;;;;5012065;28;20109;-73
2022/07/19 00:49:03;;;;;;;5.47;3.33;;;21.20;71.30;;;;;;5010277;28;20399;-73
2022/07/19 00:51:28;;;;;;;5.72;3.53;;;21.10;71.40;;;;;;5007798;28;20089;-73
2022/07/19 00:53:56;;;;;;;4.70;3.00;;;21.10;71.50;;;;;;5013350;28;20045;-72
2022/07/19 00:56:24;;;;;;;6.40;3.17;;;21.10;71.60;;;;;;5004818;28;20022;-73
2022/07/19 00:58:51;;;;;;;5.72;4.00;;;21.00;71.70;;;;;;5006740;28;20289;-73
2022/07/19 01:01:18;;;;;;;4.03;2.92;;;21.00;71.90;;;;;;5004529;28;20029;-73
2022/07/19 01:03:45;;;;;;;4.95;2.85;;;20.90;72.00;;;;;;5005469;28;20038;-73
2022/07/19 01:06:10;;;;;;;4.43;2.88;;;20.90;72.00;;;;;;5020579;28;20438;-72
2022/07/19 01:08:37;;;;;;;5.75;3.20;;;20.90;72.30;;;;;;5009834;28;20088;-73
2022/07/19 01:11:05;;;;;;;4.72;3.25;;;20.80;72.60;;;;;;5007030;28;20490;-73
2022/07/19 01:13:31;;;;;;;5.63;3.10;;;20.80;72.80;;;;;;5004715;28;20057;-73
2022/07/19 01:15:57;;;;;;;4.93;2.92;;;20.80;73.00;;;;;;5008264;28;20037;-72
2022/07/19 01:18:23;;;;;;;4.55;2.55;;;20.70;73.10;;;;;;5006155;28;20030;-72
2022/07/19 01:20:50;;;;;;;7.07;3.10;;;20.70;73.10;;;;;;5004989;28;20030;-72
2022/07/19 01:23:16;;;;;;;5.32;2.92;;;20.70;73.20;;;;;;5015491;28;20493;-72
2022/07/19 01:25:42;;;;;;;4.28;3.58;;;20.60;74.10;;;;;;5009672;28;20034;-73
2022/07/19 01:28:08;;;;;;;4.28;3.05;;;20.60;73.80;;;;;;5008819;28;20025;-73
2022/07/19 01:30:35;;;;;;;5.72;3.58;;;20.60;73.80;;;;;;5008795;28;20041;-73
2022/07/19 01:33:02;;;;;;;9.05;4.03;;;20.50;74.00;;;;;;5004687;28;20468;-73
2022/07/19 01:35:31;;;;;;;5.97;3.63;;;20.50;74.20;;;;;;5005541;28;20033;-73
2022/07/19 01:37:57;;;;;;;5.28;3.95;;;20.50;74.30;;;;;;5002821;28;20524;-73
2022/07/19 08:14:01;;;;;;;10.25;3.28;;;25.70;63.30;;;;;;5003039;28;20104;-74
2022/07/19 08:16:26;;;;;;;8.13;3.25;;;25.80;61.30;;;;;;5009958;28;20446;-74
2022/07/19 08:18:52;;;;;;;5.65;2.72;;;25.90;59.70;;;;;;5014903;28;20026;-72
2022/07/19 08:21:18;;;;;;;2.95;1.88;;;26.10;58.40;;;;;;5009254;28;20060;-73
2022/07/19 08:23:43;;;;;;;4.82;2.20;;;26.40;54.50;;;;;;5010438;28;20022;-79
2022/07/19 08:26:09;;;;;;;7.28;1.80;;;26.60;51.10;;;;;;5018242;28;20040;-79
2022/07/19 08:28:35;;;;;;;4.53;1.70;;;26.90;50.80;;;;;;5011288;28;20037;-78
2022/07/19 08:31:01;;;;;;;6.32;2.35;;;27.10;50.30;;;;;;5009714;28;20080;-79
2022/07/19 08:33:27;;;;;;;3.40;2.30;;;27.30;49.60;;;;;;5013215;28;20037;-78
2022/07/19 08:35:52;;;;;;;6.25;1.92;;;27.60;48.80;;;;;;5010575;28;20038;-78
2022/07/19 08:38:18;;;;;;;2.97;1.77;;;27.60;48.20;;;;;;5009561;28;20026;-76
2022/07/19 08:40:45;;;;;;;6.65;1.90;;;27.90;47.10;;;;;;5001607;28;20085;-78
2022/07/19 08:43:11;;;;;;;5.32;2.28;;;28.00;47.20;;;;;;5016530;28;20494;-79
2022/07/19 08:45:40;;;;;;;7.80;2.35;;;28.10;46.80;;;;;;5015668;28;20025;-78
2022/07/19 08:48:07;;;;;;;4.85;2.20;;;28.20;46.10;;;;;;5015040;28;20030;-78
2022/07/19 08:50:34;;;;;;;5.18;1.83;;;28.30;46.60;;;;;;5019205;28;20168;-77
2022/07/19 08:53:01;;;;;;;3.53;2.00;;;28.50;46.90;;;;;;5021230;28;20538;-79
2022/07/19 08:55:28;;;;;;;5.65;1.98;;;28.60;46.10;;;;;;5016398;28;20020;-75
2022/07/19 08:57:57;;;;;;;6.47;2.45;;;28.70;45.70;;;;;;5017676;28;20358;-78
2022/07/19 09:00:30;;;;;;;2.92;2.28;;;28.80;45.70;;;;;;5017638;28;20029;-77
2022/07/19 09:03:03;;;;;;;2.47;2.10;;;28.80;45.20;;;;;;5016291;28;20582;-79
2022/07/19 09:05:30;;;;;;;6.90;2.80;;;28.90;45.10;;;;;;5015948;28;20030;-78
2022/07/19 09:08:02;;;;;;;5.18;2.42;;;29.00;45.10;;;;;;5015693;28;20033;-78
2022/07/19 09:10:28;;;;;;;6.90;2.50;;;29.00;45.40;;;;;;5040637;28;20030;-77
2022/07/19 09:13:15;;;;;;;4.57;2.80;;;29.10;45.00;;;;;;5019154;28;20044;-78
2022/07/19 09:15:46;;;;;;;4.95;2.20;;;29.20;44.30;;;;;;5018479;28;20125;-78
2022/07/19 09:18:20;;;;;;;4.57;2.58;;;29.20;44.90;;;;;;5017309;28;20085;-78
2022/07/19 09:20:48;;;;;;;4.57;2.58;;;29.30;45.50;;;;;;5008642;28;20041;-77
2022/07/19 09:23:15;;;;;;;6.97;2.17;;;29.30;45.90;;;;;;5018132;28;20018;-77
2022/07/19 09:25:50;;;;;;;5.05;2.67;;;29.40;46.10;;;;;;5016454;28;20502;-78
2022/07/19 09:28:17;;;;;;;4.75;2.55;;;29.40;45.40;;;;;;5015357;28;20108;-79
2022/07/19 09:30:48;;;;;;;4.68;2.83;;;29.40;45.10;;;;;;5012593;28;20096;-79
2022/07/19 09:33:22;;;;;;;5.97;2.25;;;29.50;45.90;;;;;;5014624;28;20022;-81
2022/07/19 09:35:57;;;;;;;;;;;29.50;46.00;;;;;;5015375;28;20021;-79
2022/07/19 09:38:31;;;;;;;3.55;2.08;;;29.50;46.10;;;;;;5012590;28;19917;-78
2022/07/19 09:41:18;;;;;;;13.77;2.17;;;29.50;45.30;;;;;;5013972;28;20479;-79
2022/07/19 09:43:54;;;;;;;6.50;2.30;;;29.60;44.80;;;;;;5006769;28;20097;-78
2022/07/19 09:46:29;;;;;;;4.82;2.30;;;29.60;45.40;;;;;;5011179;28;20049;-79
2022/07/19 09:49:05;;;;;;;3.15;2.50;;;29.70;44.50;;;;;;5016344;28;20056;-80
2022/07/19 09:51:33;;;;;;;3.55;2.42;;;29.70;44.70;;;;;;5017531;28;20121;-79
2022/07/19 09:53:59;;;;;;;6.22;2.58;;;29.80;44.20;;;;;;5017146;28;20093;-78
2022/07/19 09:56:28;;;;;;;4.15;2.30;;;29.80;44.30;;;;;;5015432;28;20018;-79
2022/07/19 09:58:56;;;;;;;5.15;2.55;;;29.90;44.10;;;;;;5016335;28;20084;-77
2022/07/19 10:01:22;;;;;;;3.92;2.30;;;29.90;43.70;;;;;;5013708;28;20022;-78
2022/07/19 10:03:50;;;;;;;5.35;2.50;;;30.00;43.80;;;;;;5011196;28;20022;-78
2022/07/19 10:06:17;;;;;;;4.30;2.08;;;30.00;44.30;;;;;;5018013;28;20072;-78
2022/07/19 10:08:43;;;;;;;5.47;2.55;;;30.10;43.80;;;;;;5015969;28;20028;-79
2022/07/19 10:11:09;;;;;;;3.13;2.63;;;30.10;43.60;;;;;;5017860;28;20054;-78
2022/07/19 10:13:36;;;;;;;7.45;2.35;;;30.20;43.20;;;;;;5016878;28;20498;-78
2022/07/19 10:16:05;;;;;;;3.47;2.42;;;30.20;43.40;;;;;;5017651;28;20033;-80
2022/07/19 10:18:37;;;;;;;4.50;2.30;;;30.30;42.80;;;;;;5016646;28;20041;-79
2022/07/19 10:21:03;;;;;;;6.00;2.33;;;30.30;42.30;;;;;;5018896;28;20022;-78
2022/07/19 10:23:31;;;;;;;8.15;2.42;;;30.40;41.90;;;;;;5014262;28;20113;-78
2022/07/19 10:25:57;;;;;;;3.25;2.55;;;30.50;42.20;;;;;;5017483;28;20018;-77
2022/07/19 10:28:33;;;;;;;5.15;2.90;;;30.50;41.80;;;;;;5016783;28;20033;-79
2022/07/19 10:30:59;;;;;;;8.07;2.95;;;30.50;41.80;;;;;;5017349;28;20030;-80
2022/07/19 10:33:29;;;;;;;6.70;2.85;;;30.50;41.60;;;;;;5015948;28;20033;-79
2022/07/19 10:35:54;;;;;;;6.88;3.10;;;30.60;41.00;;;;;;5029878;28;20033;-79
2022/07/19 10:38:20;;;;;;;2.90;2.38;;;30.50;41.70;;;;;;5014832;28;20045;-79
2022/07/19 10:40:48;;;;;;;7.30;2.30;;;30.60;41.20;;;;;;5016758;28;20580;-78
2022/07/19 10:43:18;;;;;;;6.15;2.80;;;30.50;41.00;;;;;;5018146;28;20018;-79
2022/07/19 10:46:04;;;;;;;4.75;2.47;;;30.60;41.80;;;;;;5016075;28;20026;-78
2022/07/19 10:48:40;;;;;;;4.55;2.60;;;30.60;40.70;;;;;;5005177;28;20054;-76
2022/07/19 10:51:09;;;;;;;5.18;2.53;;;30.70;40.90;;;;;;5007075;28;20076;-77
2022/07/19 10:53:41;;;;;;;4.78;2.65;;;30.70;41.50;;;;;;5007663;28;20446;-73
2022/07/19 10:56:20;;;;;;;4.35;2.40;;;30.70;42.00;;;;;;5010160;28;20100;-73
2022/07/19 10:59:26;;;;;;;4.22;2.58;;;30.70;41.80;;;;;;5008887;28;20470;-76
2022/07/19 11:02:02;;;;;;;3.03;2.30;;;30.70;41.30;;;;;;5007126;28;20406;-76
2022/07/19 11:04:50;;;;;;;6.93;2.63;;;30.70;41.40;;;;;;5030676;28;20026;-77
2022/07/19 11:07:22;;;;;;;12.57;3.90;;;30.70;41.80;;;;;;5014948;28;20075;-77
2022/07/19 11:09:50;;;;;;;5.13;2.85;;;30.70;42.00;;;;;;5016822;28;20032;-77
2022/07/19 11:12:29;;;;;;;8.02;2.88;;;30.80;41.40;;;;;;5016646;28;20022;-77
2022/07/19 11:15:02;;;;;;;6.10;3.00;;;30.90;41.20;;;;;;5007098;28;20487;-76
2022/07/19 11:17:28;;;;;;;3.10;2.30;;;30.90;41.50;;;;;;5013553;28;20402;-75
2022/07/19 11:20:02;;;;;;;5.85;2.75;;;31.00;41.00;;;;;;5013945;28;20030;-76
2022/07/19 11:22:33;;;;;;;6.00;2.70;;;31.00;40.40;;;;;;5009879;28;20030;-76
2022/07/19 11:25:02;;;;;;;5.20;2.67;;;31.00;40.20;;;;;;5015414;28;20033;-77
2022/07/19 11:27:32;;;;;;;5.25;2.55;;;31.10;40.50;;;;;;5018684;28;20045;-77
2022/07/19 11:30:03;;;;;;;5.68;2.35;;;31.20;40.60;;;;;;5011287;28;20180;-74
2022/07/19 11:32:30;;;;;;;3.03;1.77;;;31.20;41.60;;;;;;5008951;28;20022;-75
2022/07/19 11:35:02;;;;;;;4.72;2.47;;;31.20;41.00;;;;;;5011951;28;20025;-74
2022/07/19 11:37:31;;;;;;;6.05;2.40;;;31.20;40.30;;;;;;5010659;28;20096;-74
2022/07/19 11:39:57;;;;;;;3.88;2.33;;;31.20;39.40;;;;;;5010165;28;20025;-74
2022/07/19 11:42:32;;;;;;;4.65;2.60;;;31.20;39.70;;;;;;5010693;28;20510;-75
2022/07/19 11:44:58;;;;;;;5.35;2.40;;;31.20;40.30;;;;;;5010086;28;20029;-74
2022/07/19 11:47:24;;;;;;;5.20;2.30;;;31.30;40.70;;;;;;5008366;28;20029;-74
2022/07/19 11:49:50;;;;;;;7.03;2.35;;;31.30;40.70;;;;;;5008995;28;20044;-74
2022/07/19 11:52:16;;;;;;;3.83;2.25;;;31.40;40.80;;;;;;5009532;28;20033;-74
2022/07/19 11:54:42;;;;;;;2.85;2.38;;;31.40;40.60;;;;;;5003046;28;20120;-74
2022/07/19 11:57:24;;;;;;;3.55;2.08;;;31.40;40.50;;;;;;5009789;28;20065;-76
2022/07/19 11:59:50;;;;;;;2.63;2.38;;;31.40;40.70;;;;;;5007156;28;20028;-74
2022/07/19 12:02:16;;;;;;;8.82;2.08;;;31.50;39.90;;;;;;5009488;28;20021;-73
2022/07/19 12:04:41;;;;;;;5.68;2.05;;;31.60;39.90;;;;;;5007024;28;20483;-74
2022/07/19 12:07:07;;;;;;;2.50;2.03;;;31.60;39.80;;;;;;5007605;28;20029;-72
2022/07/19 12:09:33;;;;;;;3.85;2.20;;;31.60;40.00;;;;;;5010001;28;20034;-73
2022/07/19 12:12:10;;;;;;;7.40;3.15;;;31.50;42.90;;;;;;5007352;28;20041;-73
2022/07/19 12:14:37;;;;;;;4.10;2.58;;;31.40;41.80;;;;;;5003030;28;20300;-72
2022/07/19 12:17:21;;;;;;;3.92;2.28;;;31.30;40.70;;;;;;5005072;28;20490;-73
2022/07/19 12:19:50;;;;;;;5.72;2.53;;;31.30;40.50;;;;;;5006600;28;20038;-73
2022/07/19 12:22:42;;;;;;;2.78;2.25;;;31.40;39.90;;;;;;5009598;28;20029;-73
2022/07/19 12:25:08;;;;;;;6.75;2.38;;;31.40;39.50;;;;;;5005237;28;20034;-73
2022/07/19 12:27:34;;;;;;;3.42;2.53;;;31.50;40.00;;;;;;5012957;28;20115;-73
2022/07/19 12:30:02;;;;;;;5.65;2.28;;;31.40;40.40;;;;;;5010834;28;20057;-73
2022/07/19 12:32:37;;;;;;;4.75;2.80;;;31.60;40.20;;;;;;5007882;28;20022;-74
2022/07/19 12:35:11;;;;;;;3.75;2.83;;;31.70;39.80;;;;;;5009926;28;20033;-74
2022/07/19 12:37:49;;;;;;;2.97;2.38;;;31.70;40.40;;;;;;5010974;28;20073;-73
2022/07/19 12:40:22;;;;;;;2.50;2.03;;;31.70;40.50;;;;;;5009382;28;20025;-73
2022/07/19 12:42:59;;;;;;;6.03;2.50;;;31.70;39.80;;;;;;5011280;28;20025;-74
2022/07/19 12:45:27;;;;;;;5.47;2.50;;;31.70;40.00;;;;;;5010371;28;20026;-74
2022/07/19 12:47:53;;;;;;;5.60;3.10;;;31.80;39.90;;;;;;5006240;28;20454;-74
2022/07/19 12:50:22;;;;;;;5.53;2.60;;;31.80;39.90;;;;;;5013114;28;20105;-74
2022/07/19 12:52:48;;;;;;;5.53;2.85;;;31.90;38.70;;;;;;5028969;28;20029;-74
2022/07/19 12:55:14;;;;;;;6.97;2.90;;;32.00;39.10;;;;;;5014663;28;20379;-74
2022/07/19 12:57:39;;;;;;;4.00;3.17;;;32.00;39.20;;;;;;5012744;28;20026;-74
2022/07/19 13:00:06;;;;;;;5.90;3.17;;;32.00;39.10;;;;;;5014317;28;20467;-74
2022/07/19 13:02:32;;;;;;;7.95;3.03;;;32.10;38.90;;;;;;5012221;28;20061;-74
2022/07/19 13:04:57;;;;;;;6.47;2.88;;;32.10;38.80;;;;;;5012611;28;20049;-74
2022/07/19 13:07:23;;;;;;;5.43;2.67;;;32.20;39.00;;;;;;5011413;28;20026;-74
2022/07/19 13:09:49;;;;;;;6.18;2.58;;;32.20;38.80;;;;;;5014530;28;20026;-74
2022/07/19 13:12:15;;;;;;;5.65;2.83;;;32.10;39.00;;;;;;5010487;28;20080;-73
2022/07/19 13:14:41;;;;;;;7.05;2.70;;;32.20;39.10;;;;;;5010931;28;20478;-74
2022/07/19 13:17:10;;;;;;;6.55;2.40;;;32.10;39.10;;;;;;5014130;28;20030;-74
2022/07/19 13:19:37;;;;;;;5.68;2.80;;;32.10;39.70;;;;;;5005913;28;20088;-73
2022/07/19 13:22:03;;;;;;;5.55;3.10;;;32.20;39.10;;;;;;5007599;28;20022;-73
2022/07/19 13:24:29;;;;;;;3.58;2.72;;;32.20;38.70;;;;;;5008180;28;20117;-72
2022/07/19 13:26:54;;;;;;;8.85;3.83;;;32.20;38.40;;;;;;5009409;28;20034;-73
2022/07/19 13:29:20;;;;;;;4.68;3.05;;;32.20;38.00;;;;;;5006452;28;20071;-73
2022/07/19 13:31:46;;;;;;;4.22;2.72;;;32.20;38.50;;;;;;5011416;28;20065;-73
2022/07/19 13:34:12;;;;;;;8.35;2.67;;;32.20;38.90;;;;;;5009361;28;20486;-73
2022/07/19 13:36:38;;;;;;;4.18;2.65;;;32.20;39.00;;;;;;5015722;28;20049;-73
2022/07/19 13:39:03;;;;;;;5.95;3.05;;;32.30;38.30;;;;;;5005966;28;20022;-72
2022/07/19 13:41:29;;;;;;;8.57;3.30;;;32.30;38.10;;;;;;5009036;28;20025;-75
2022/07/19 13:43:55;;;;;;;6.45;2.90;;;32.30;38.30;;;;;;5009622;28;20058;-74
2022/07/19 13:46:20;;;;;;;4.35;2.70;;;32.20;39.10;;;;;;5009935;28;20014;-73
2022/07/19 13:48:46;;;;;;;5.10;2.80;;;32.30;38.80;;;;;;5014372;28;20022;-74
2022/07/19 13:51:12;;;;;;;6.40;3.13;;;32.20;39.90;;;;;;5012819;28;20694;-74
2022/07/19 13:53:38;;;;;;;4.95;2.95;;;32.20;39.30;;;;;;5012962;28;20036;-76
2022/07/19 13:56:05;;;;;;;6.10;2.90;;;32.30;39.10;;;;;;5010870;28;20026;-74
2022/07/19 13:58:31;;;;;;;5.75;2.92;;;32.40;38.10;;;;;;5009648;28;21790;-74
2022/07/19 14:00:57;;;;;;;5.88;3.20;;;32.40;37.70;;;;;;5007725;28;20112;-73
2022/07/19 14:03:22;;;;;;;5.32;2.78;;;32.40;37.40;;;;;;5005615;28;20137;-73
2022/07/19 14:05:48;;;;;;;4.88;2.97;;;32.40;37.40;;;;;;5009840;28;20025;-74
2022/07/19 14:08:15;;;;;;;5.70;2.90;;;32.50;37.50;;;;;;5011124;28;20036;-75
2022/07/19 14:10:41;;;;;;;4.40;2.70;;;32.50;40.50;;;;;;5015610;28;20026;-75
2022/07/19 14:13:09;;;;;;;5.55;3.15;;;32.50;38.60;;;;;;5014124;28;20104;-75
2022/07/19 14:15:47;;;;;;;6.20;3.00;;;32.50;37.20;;;;;;5001696;28;20034;-75
2022/07/19 14:18:14;;;;;;;3.70;2.60;;;32.50;37.20;;;;;;5017598;28;20030;-76
2022/07/19 14:20:41;;;;;;;4.60;2.58;;;32.50;38.00;;;;;;4998548;28;20033;-76
2022/07/19 14:23:07;;;;;;;5.50;2.58;;;32.60;37.70;;;;;;5009401;28;20087;-77
2022/07/19 14:25:33;;;;;;;7.43;2.97;;;32.60;37.60;;;;;;5010825;28;20049;-77
2022/07/19 14:27:58;;;;;;;7.80;3.20;;;32.50;37.80;;;;;;5010959;28;20479;-77
2022/07/19 14:30:24;;;;;;;5.72;2.78;;;32.50;37.60;;;;;;5013227;28;20021;-77
2022/07/19 14:32:50;;;;;;;6.10;2.97;;;32.50;38.10;;;;;;5012613;28;20014;-76
2022/07/19 14:35:17;;;;;;;5.85;2.85;;;32.50;37.30;;;;;;5012479;28;20026;-76
2022/07/19 14:37:44;;;;;;;6.80;3.10;;;32.50;37.20;;;;;;5011440;28;20483;-76
2022/07/19 14:40:11;;;;;;;7.40;2.72;;;32.60;37.00;;;;;;5006664;28;20076;-76
2022/07/19 14:42:37;;;;;;;4.70;2.80;;;32.70;37.30;;;;;;5013435;28;20037;-76
2022/07/19 14:45:03;;;;;;;5.32;2.40;;;32.70;37.60;;;;;;5012429;28;20407;-76
2022/07/19 14:47:29;;;;;;;8.27;3.58;;;32.70;37.40;;;;;;5005238;28;20565;-76
2022/07/19 14:49:55;;;;;;;8.55;2.95;;;32.80;37.90;;;;;;5013653;28;20105;-77
2022/07/19 14:52:20;;;;;;;9.23;3.35;;;32.80;37.90;;;;;;5013862;28;20029;-76
2022/07/19 14:54:46;;;;;;;7.38;2.90;;;32.80;37.60;;;;;;5010558;28;20456;-76
2022/07/19 14:57:12;;;;;;;7.57;3.50;;;32.90;37.10;;;;;;5012857;28;20076;-75
2022/07/19 14:59:38;;;;;;;4.82;2.40;;;32.90;36.90;;;;;;5009539;28;20081;-77
2022/07/19 15:02:04;;;;;;;4.38;2.88;;;32.90;36.90;;;;;;5012583;28;20382;-76
2022/07/19 15:04:29;;;;;;;3.47;2.38;;;32.90;36.80;;;;;;5008719;28;20022;-76
2022/07/19 15:06:55;;;;;;;5.90;2.90;;;32.90;36.70;;;;;;5012768;28;20032;-77
2022/07/19 15:09:21;;;;;;;7.38;2.70;;;32.90;36.90;;;;;;5007543;28;20026;-76
2022/07/19 15:11:47;;;;;;;4.32;3.10;;;32.90;36.90;;;;;;5006674;28;20088;-74
2022/07/19 15:14:14;;;;;;;5.22;2.75;;;32.80;37.20;;;;;;5010207;28;20029;-77
2022/07/19 15:16:40;;;;;;;5.85;2.90;;;32.90;37.50;;;;;;5010208;28;20759;-77
2022/07/19 15:19:06;;;;;;;5.70;3.08;;;32.80;37.80;;;;;;5011041;28;20033;-75
2022/07/19 15:21:33;;;;;;;6.50;2.35;;;32.70;37.60;;;;;;5011337;28;20038;-77
2022/07/19 15:23:59;;;;;;;7.47;2.47;;;32.70;37.50;;;;;;5007969;28;20045;-77
2022/07/19 15:26:25;;;;;;;4.75;2.35;;;32.90;37.00;;;;;;5009792;28;20022;-77
2022/07/19 15:28:51;;;;;;;4.57;2.83;;;32.80;36.70;;;;;;5009699;28;20033;-75
2022/07/19 15:31:17;;;;;;;7.05;2.95;;;32.90;37.00;;;;;;5011900;28;20037;-76
2022/07/19 15:33:43;;;;;;;8.70;2.80;;;32.90;37.40;;;;;;5012218;28;20021;-78
2022/07/19 15:36:09;;;;;;;4.57;2.75;;;32.90;37.80;;;;;;5012605;28;20037;-77
2022/07/19 15:38:34;;;;;;;3.53;2.30;;;32.90;37.70;;;;;;5010591;28;20479;-77
2022/07/19 15:41:00;;;;;;;8.93;3.22;;;32.80;38.20;;;;;;5011933;28;20034;-77
2022/07/19 15:43:26;;;;;;;5.65;2.90;;;32.80;38.50;;;;;;5012575;28;20029;-77
2022/07/19 15:45:51;;;;;;;8.35;3.03;;;32.80;38.20;;;;;;5010621;28;20041;-77
2022/07/19 15:48:17;;;;;;;6.15;2.83;;;32.90;38.00;;;;;;5012275;28;20109;-76
2022/07/19 15:50:45;;;;;;;5.40;3.33;;;32.90;38.00;;;;;;5012686;28;20173;-77
2022/07/19 15:53:16;;;;;;;5.10;2.95;;;32.90;38.00;;;;;;5013172;28;20022;-77
2022/07/19 15:55:42;;;;;;;5.38;2.58;;;32.90;38.80;;;;;;5014068;28;20048;-77
2022/07/19 15:58:08;;;;;;;10.82;2.65;;;32.80;38.70;;;;;;5011622;28;20026;-77
2022/07/19 16:00:34;;;;;;;6.60;3.13;;;32.70;38.70;;;;;;5013375;28;20499;-76
2022/07/19 16:02:59;;;;;;;5.28;2.83;;;32.70;38.50;;;;;;5011938;28;20014;-77
2022/07/19 16:05:25;;;;;;;4.72;2.55;;;32.70;38.30;;;;;;5013884;28;20026;-74
2022/07/19 16:07:51;;;;;;;8.15;2.72;;;32.80;38.10;;;;;;5012681;28;20026;-71
2022/07/19 16:10:17;;;;;;;5.18;2.35;;;32.90;37.80;;;;;;5011090;28;20388;-71
2022/07/19 16:12:43;;;;;;;3.45;2.63;;;32.90;38.20;;;;;;5011293;28;20026;-71
2022/07/19 16:15:09;;;;;;;3.45;2.83;;;32.90;38.00;;;;;;5005073;28;20022;-70
2022/07/19 16:17:36;;;;;;;5.95;2.58;;;32.90;37.90;;;;;;5012143;28;20037;-70
2022/07/19 16:20:05;;;;;;;7.05;2.88;;;32.90;38.10;;;;;;5012237;28;20025;-71
2022/07/19 16:22:31;;;;;;;3.65;2.42;;;32.90;37.80;;;;;;5011083;28;20049;-71
2022/07/19 16:24:56;;;;;;;6.07;2.40;;;32.90;38.50;;;;;;5012527;28;20014;-70
2022/07/19 16:27:23;;;;;;;5.40;2.63;;;32.90;37.50;;;;;;5004262;28;20472;-72
2022/07/19 16:29:49;;;;;;;4.32;2.45;;;32.90;37.60;;;;;;5007395;28;20300;-71
2022/07/19 16:32:15;;;;;;;14.75;9.43;;;32.90;38.00;;;;;;5008251;28;20057;-72
2022/07/19 16:34:41;;;;;;;11.98;7.18;;;32.80;40.90;;;;;;5008625;28;20050;-71
2022/07/19 16:37:07;;;;;;;9.45;5.15;;;32.70;41.80;;;;;;5009294;28;20548;-70
2022/07/19 16:39:37;;;;;;;9.35;5.85;;;32.60;41.20;;;;;;5010740;28;20033;-71
2022/07/19 16:42:04;;;;;;;10.63;5.70;;;32.60;38.70;;;;;;5010309;28;20053;-71
2022/07/19 16:44:30;;;;;;;13.25;6.22;;;32.50;41.80;;;;;;5009757;28;20026;-71
2022/07/19 16:46:56;;;;;;;6.63;3.50;;;32.40;42.20;;;;;;5009652;28;20084;-71
2022/07/19 16:49:22;;;;;;;5.65;3.15;;;32.50;38.70;;;;;;5008992;28;20034;-71
2022/07/19 16:51:48;;;;;;;7.03;3.25;;;32.60;39.70;;;;;;5008844;28;20034;-71
2022/07/19 16:54:15;;;;;;;4.75;2.97;;;32.50;38.90;;;;;;5010281;28;20030;-71
2022/07/19 16:56:41;;;;;;;5.88;3.10;;;32.50;39.50;;;;;;5012173;28;20061;-71
2022/07/19 16:59:06;;;;;;;6.28;2.88;;;32.40;39.30;;;;;;5010222;28;20072;-71
2022/07/19 17:01:32;;;;;;;3.55;2.83;;;32.50;39.30;;;;;;5011631;28;20474;-71
2022/07/19 17:03:58;;;;;;;8.00;3.25;;;32.40;39.40;;;;;;5011055;28;20026;-70
2022/07/19 17:06:26;;;;;;;9.45;3.95;;;32.40;39.80;;;;;;5009657;28;20025;-71
2022/07/19 17:08:51;;;;;;;7.47;3.33;;;32.30;41.50;;;;;;5010002;28;20080;-70
2022/07/19 17:11:17;;;;;;;5.35;3.20;;;32.10;41.70;;;;;;5011488;28;20029;-72
2022/07/19 17:13:43;;;;;;;6.70;3.28;;;32.10;40.20;;;;;;5012978;28;20021;-71
2022/07/19 17:16:08;;;;;;;5.75;3.58;;;32.10;40.20;;;;;;5013783;28;20080;-70
2022/07/19 17:18:34;;;;;;;7.70;3.45;;;32.00;41.50;;;;;;5008089;28;20030;-71
2022/07/19 17:21:00;;;;;;;7.18;3.90;;;31.90;42.10;;;;;;5012240;28;20519;-72
2022/07/19 17:23:25;;;;;;;6.78;3.38;;;31.90;41.60;;;;;;5009500;28;20497;-70
2022/07/19 17:25:51;;;;;;;6.07;3.33;;;31.80;42.00;;;;;;5011777;28;20109;-70
2022/07/19 17:28:17;;;;;;;5.03;3.30;;;31.70;42.30;;;;;;5013701;28;20124;-73
2022/07/19 17:30:43;;;;;;;6.43;3.67;;;31.70;41.40;;;;;;5014875;28;20032;-71
2022/07/19 17:33:08;;;;;;;7.05;3.25;;;31.50;42.10;;;;;;5015630;28;20049;-70
2022/07/19 17:35:34;;;;;;;6.32;2.92;;;31.80;40.70;;;;;;5011659;28;20025;-71
2022/07/19 17:38:02;;;;;;;5.20;3.30;;;31.70;42.30;;;;;;5014700;28;20034;-72
2022/07/19 17:40:29;;;;;;;4.20;3.08;;;31.80;41.20;;;;;;5014877;28;20479;-72
2022/07/19 17:42:55;;;;;;;7.53;3.13;;;31.60;42.40;;;;;;5012739;28;20080;-71
2022/07/19 17:45:21;;;;;;;3.97;3.40;;;31.50;42.20;;;;;;5014450;28;20018;-70
2022/07/19 17:47:46;;;;;;;7.20;2.78;;;31.40;42.90;;;;;;5013825;28;20022;-72
2022/07/19 17:50:12;;;;;;;8.27;3.60;;;31.30;43.00;;;;;;5014180;28;20075;-74
2022/07/19 17:52:38;;;;;;;5.55;2.97;;;31.20;43.10;;;;;;5013233;28;20172;-71
2022/07/19 17:55:05;;;;;;;4.05;2.72;;;31.10;42.80;;;;;;5010918;28;20065;-70
2022/07/19 17:57:30;;;;;;;7.05;3.03;;;31.00;43.10;;;;;;5008757;28;20133;-70
2022/07/19 17:59:56;;;;;;;5.70;3.53;;;30.90;43.50;;;;;;5009872;28;20065;-69
2022/07/19 18:02:22;;;;;;;6.78;3.53;;;30.90;43.80;;;;;;5011852;28;20030;-69
2022/07/19 18:04:47;;;;;;;12.70;4.05;;;30.80;43.70;;;;;;5011818;28;20135;-70
2022/07/19 18:07:13;;;;;;;16.63;7.93;;;30.80;43.70;;;;;;5004377;28;20045;-71
2022/07/19 18:09:39;;;;;;;6.00;3.60;;;30.70;44.20;;;;;;5009260;28;20034;-68
2022/07/19 18:12:04;;;;;;;6.40;3.10;;;30.80;43.80;;;;;;5013390;28;20022;-67
2022/07/19 18:14:30;;;;;;;7.60;3.47;;;30.90;44.00;;;;;;5010638;28;20123;-69
2022/07/19 18:16:56;;;;;;;9.43;3.65;;;30.90;43.60;;;;;;5006865;28;20040;-69
2022/07/19 18:19:22;;;;;;;7.60;3.22;;;31.10;42.80;;;;;;5010936;28;20021;-69
2022/07/19 18:21:47;;;;;;;5.07;3.70;;;31.30;42.90;;;;;;5011790;28;20034;-68
2022/07/19 18:24:13;;;;;;;6.38;3.58;;;31.30;42.60;;;;;;5009337;28;20142;-68
2022/07/19 18:26:38;;;;;;;6.70;3.78;;;31.30;43.20;;;;;;5004612;28;20037;-69
2022/07/19 18:29:04;;;;;;;9.13;4.63;;;31.20;43.60;;;;;;5010790;28;20037;-69
2022/07/19 18:31:30;;;;;;;7.07;4.25;;;31.10;44.20;;;;;;5011063;28;20034;-68
2022/07/19 18:33:56;;;;;;;9.20;4.38;;;31.00;44.30;;;;;;5010241;28;20573;-69
2022/07/19 18:36:22;;;;;;;7.60;4.85;;;31.00;43.90;;;;;;5009869;28;20092;-66
2022/07/19 18:38:47;;;;;;;7.78;4.65;;;30.80;44.60;;;;;;5012444;28;20031;-71
2022/07/19 18:41:13;;;;;;;6.32;4.20;;;30.80;44.40;;;;;;5011809;28;20060;-71
2022/07/19 18:43:41;;;;;;;6.65;3.88;;;30.80;44.10;;;;;;5005218;28;20032;-70
2022/07/19 18:46:06;;;;;;;6.38;3.58;;;30.70;45.20;;;;;;5006867;28;20073;-68
2022/07/19 18:48:32;;;;;;;8.65;4.32;;;30.60;44.90;;;;;;5009372;28;20418;-68
2022/07/19 18:51:02;;;;;;;5.07;4.28;;;30.50;46.10;;;;;;5010758;28;20034;-69
2022/07/19 18:53:29;;;;;;;6.70;4.50;;;30.40;47.10;;;;;;5011211;28;20370;-67
2022/07/19 18:55:55;;;;;;;8.93;4.38;;;30.20;47.50;;;;;;5010041;28;20038;-69
2022/07/19 18:58:21;;;;;;;10.48;4.50;;;30.10;47.70;;;;;;5003814;28;20052;-69
2022/07/19 19:00:47;;;;;;;9.30;4.05;;;30.00;48.10;;;;;;5002874;28;20033;-71
2022/07/19 19:03:13;;;;;;;10.25;3.80;;;29.80;48.90;;;;;;5004227;28;20037;-69
2022/07/19 19:05:40;;;;;;;7.03;4.38;;;29.70;49.50;;;;;;5007972;28;20040;-70
2022/07/19 19:08:06;;;;;;;8.65;4.53;;;29.60;49.90;;;;;;5007111;28;20034;-72
2022/07/19 19:10:33;;;;;;;7.88;3.85;;;29.50;49.90;;;;;;5007969;28;20117;-70
2022/07/19 19:12:59;;;;;;;7.50;4.35;;;29.40;50.50;;;;;;5010482;28;20447;-70
2022/07/19 19:15:24;;;;;;;5.65;4.00;;;29.30;50.70;;;;;;5010560;28;20052;-70
2022/07/19 19:17:50;;;;;;;9.25;4.50;;;29.10;50.70;;;;;;5008767;28;20030;-70
2022/07/19 19:20:17;;;;;;;10.75;4.60;;;29.10;50.70;;;;;;5008914;28;20111;-70